createdAt,value
2023-03-15T00:01:12.671Z,5.40
2023-03-15T00:03:42.171Z,5.30
2023-03-15T00:06:11.421Z,5.30
2023-03-15T00:08:39.571Z,5.30
2023-03-15T00:11:08.524Z,5.40
2023-03-15T00:13:36.652Z,5.50
2023-03-15T00:16:05.694Z,5.50
2023-03-15T00:18:34.008Z,5.50
2023-03-15T00:21:03.449Z,5.60
2023-03-15T00:23:32.782Z,5.60
2023-03-15T00:26:00.869Z,5.70
2023-03-15T00:28:29.197Z,5.70
2023-03-15T00:31:07.229Z,5.70
2023-03-15T00:33:37.299Z,5.80
2023-03-15T00:36:08.087Z,5.80
2023-03-15T00:38:36.732Z,5.80
2023-03-15T00:41:08.183Z,5.80
2023-03-15T00:43:36.564Z,5.50
2023-03-15T00:46:05.412Z,5.40
2023-03-15T00:48:35.283Z,5.20
2023-03-15T00:51:04.776Z,4.90
2023-03-15T00:53:35.439Z,4.70
2023-03-15T00:56:07.440Z,4.50
2023-03-15T00:58:36.186Z,4.30
2023-03-15T01:01:06.846Z,4.30
2023-03-15T01:03:36.997Z,4.20
2023-03-15T01:06:09.273Z,4.00
2023-03-15T01:08:39.153Z,3.90
2023-03-15T01:11:08.382Z,3.80
2023-03-15T01:13:37.307Z,3.70
2023-03-15T01:16:05.726Z,3.60
2023-03-15T01:18:34.130Z,3.50
2023-03-15T01:21:02.319Z,3.40
2023-03-15T01:23:30.391Z,3.40
2023-03-15T01:26:02.497Z,3.40
2023-03-15T01:28:30.630Z,3.40
2023-03-15T01:31:00.076Z,3.40
2023-03-15T01:33:28.743Z,3.40
2023-03-15T01:36:00.954Z,3.30
2023-03-15T01:38:29.578Z,3.30
2023-03-15T01:40:58.038Z,3.40
2023-03-15T01:43:28.076Z,3.40
2023-03-15T01:46:09.238Z,3.40
2023-03-15T01:48:44.698Z,3.30
2023-03-15T01:51:22.228Z,3.30
2023-03-15T01:53:55.437Z,3.30
2023-03-15T01:56:24.433Z,3.20
2023-03-15T01:58:54.789Z,3.30
2023-03-15T02:01:23.443Z,3.30
2023-03-15T02:03:54.516Z,3.30
2023-03-15T02:06:26.981Z,3.30
2023-03-15T02:08:59.056Z,3.40
2023-03-15T02:11:32.269Z,3.40
2023-03-15T02:14:03.358Z,3.30
2023-03-15T02:16:32.134Z,3.40
2023-03-15T02:19:05.815Z,3.40
2023-03-15T02:21:41.698Z,3.40
2023-03-15T02:24:14.447Z,3.40
2023-03-15T02:26:45.106Z,3.50
2023-03-15T02:29:14.871Z,3.50
2023-03-15T02:31:43.574Z,3.40
2023-03-15T02:34:11.639Z,3.40
2023-03-15T02:36:40.236Z,3.40
2023-03-15T02:39:15.785Z,3.40
2023-03-15T02:41:46.404Z,3.40
2023-03-15T02:44:18.632Z,3.40
2023-03-15T02:46:48.986Z,3.40
2023-03-15T02:49:23.132Z,3.50
2023-03-15T02:51:52.105Z,3.40
2023-03-15T02:54:20.341Z,3.40
2023-03-15T02:56:48.453Z,3.40
2023-03-15T02:59:18.630Z,3.40
2023-03-15T03:01:46.938Z,3.40
2023-03-15T03:04:15.670Z,3.40
2023-03-15T03:06:44.210Z,3.30
2023-03-15T03:09:16.701Z,3.30
2023-03-15T03:11:45.064Z,3.40
2023-03-15T03:14:15.081Z,3.40
2023-03-15T03:16:45.283Z,3.40
2023-03-15T03:19:14.004Z,3.40
2023-03-15T03:21:44.403Z,3.30
2023-03-15T03:24:16.800Z,3.40
2023-03-15T03:26:47.054Z,3.40
2023-03-15T03:29:17.266Z,3.40
2023-03-15T03:31:50.170Z,3.40
2023-03-15T03:34:19.855Z,3.40
2023-03-15T03:36:48.645Z,3.30
2023-03-15T03:39:25.840Z,3.40
2023-03-15T03:41:54.052Z,3.30
2023-03-15T03:44:22.783Z,3.30
2023-03-15T03:46:52.393Z,3.30
2023-03-15T03:49:21.301Z,3.30
2023-03-15T03:51:49.461Z,3.30
2023-03-15T03:54:18.087Z,3.30
2023-03-15T03:56:46.260Z,3.30
2023-03-15T03:59:15.010Z,3.30
2023-03-15T04:02:07.305Z,3.20
2023-03-15T04:04:36.751Z,3.20
2023-03-15T04:07:06.452Z,3.20
2023-03-15T04:09:38.189Z,3.20
2023-03-15T04:12:07.752Z,3.10
2023-03-15T04:14:38.157Z,3.10
2023-03-15T04:17:10.852Z,3.10
2023-03-15T04:19:39.539Z,3.10
2023-03-15T04:22:09.506Z,3.10
2023-03-15T04:24:50.909Z,3.10
2023-03-15T04:27:42.732Z,3.10
2023-03-15T04:30:38.598Z,3.00
2023-03-15T04:33:26.662Z,3.00
2023-03-15T04:36:03.873Z,3.00
2023-03-15T04:38:46.582Z,3.00
2023-03-15T04:41:28.183Z,3.00
2023-03-15T04:44:05.391Z,3.00
2023-03-15T04:46:52.522Z,3.00
2023-03-15T04:49:31.746Z,3.10
2023-03-15T04:52:21.651Z,3.00
2023-03-15T04:54:59.943Z,2.90
2023-03-15T04:57:47.743Z,2.80
2023-03-15T05:00:33.026Z,2.90
2023-03-15T05:03:27.720Z,2.80
2023-03-15T05:06:13.288Z,2.80
2023-03-15T05:08:55.883Z,2.70
2023-03-15T05:11:35.477Z,2.70
2023-03-15T05:14:16.443Z,2.70
2023-03-15T05:17:16.991Z,2.70
2023-03-15T05:20:12.124Z,2.60
2023-03-15T05:22:53.172Z,2.60
2023-03-15T05:25:45.459Z,2.50
2023-03-15T05:28:28.160Z,2.50
2023-03-15T05:31:10.730Z,2.50
2023-03-15T05:34:04.377Z,2.50
2023-03-15T05:36:52.561Z,2.50
2023-03-15T05:39:55.597Z,2.40
2023-03-15T05:42:44.934Z,2.40
2023-03-15T05:45:35.904Z,2.40
2023-03-15T05:48:24.255Z,2.50
2023-03-15T05:51:14.196Z,2.40
2023-03-15T05:54:18.160Z,2.40
2023-03-15T05:57:12.572Z,2.50
2023-03-15T06:00:00.216Z,2.50
2023-03-15T06:02:43.742Z,2.50
2023-03-15T06:05:28.201Z,2.40
2023-03-15T06:07:58.270Z,2.40
2023-03-15T06:10:26.961Z,2.40
2023-03-15T06:12:58.926Z,2.40
2023-03-15T06:15:27.814Z,2.40
2023-03-15T06:17:57.358Z,2.30
2023-03-15T06:20:25.841Z,2.30
2023-03-15T06:22:54.250Z,2.40
2023-03-15T06:25:31.141Z,2.40
2023-03-15T06:28:01.732Z,2.40
2023-03-15T06:30:31.071Z,2.30
2023-03-15T06:33:01.991Z,2.40
2023-03-15T06:35:32.070Z,2.40
2023-03-15T06:38:00.269Z,2.40
2023-03-15T06:40:28.823Z,2.40
2023-03-15T06:42:57.101Z,2.50
2023-03-15T06:45:28.305Z,2.60
2023-03-15T06:47:59.198Z,2.70
2023-03-15T06:50:29.560Z,2.80
2023-03-15T06:53:21.241Z,3.00
2023-03-15T06:55:50.644Z,3.00
2023-03-15T06:58:19.582Z,3.10
2023-03-15T07:00:49.575Z,3.10
2023-03-15T07:03:19.249Z,3.10
2023-03-15T07:05:49.783Z,3.20
2023-03-15T07:08:17.927Z,3.30
2023-03-15T07:10:48.651Z,3.30
2023-03-15T07:13:16.992Z,3.30
2023-03-15T07:15:46.160Z,3.30
2023-03-15T07:18:15.741Z,3.40
2023-03-15T07:20:44.120Z,3.50
2023-03-15T07:23:12.449Z,3.60
2023-03-15T07:25:54.065Z,3.80
2023-03-15T07:28:31.998Z,3.90
2023-03-15T07:31:01.718Z,4.00
2023-03-15T07:33:32.089Z,4.10
2023-03-15T07:36:00.930Z,4.10
2023-03-15T07:38:29.789Z,4.20
2023-03-15T07:40:58.369Z,4.30
2023-03-15T07:43:26.627Z,4.30
2023-03-15T07:46:08.193Z,4.30
2023-03-15T07:48:37.834Z,4.40
2023-03-15T07:51:07.021Z,4.50
2023-03-15T07:53:35.067Z,4.60
2023-03-15T07:56:03.313Z,4.70
2023-03-15T07:58:31.443Z,4.70
2023-03-15T08:01:00.142Z,4.70
2023-03-15T08:03:28.251Z,4.70
2023-03-15T08:05:58.041Z,4.60
2023-03-15T08:08:26.235Z,4.60
2023-03-15T08:10:56.080Z,4.60
2023-03-15T08:13:25.308Z,4.60
2023-03-15T08:15:54.336Z,4.50
2023-03-15T08:18:22.544Z,4.40
2023-03-15T08:20:50.888Z,4.40
2023-03-15T08:23:22.085Z,4.50
2023-03-15T08:25:50.190Z,4.70
2023-03-15T08:28:18.450Z,4.70
2023-03-15T08:30:46.581Z,4.60
2023-03-15T08:33:15.024Z,4.60
2023-03-15T08:35:43.088Z,4.60
2023-03-15T08:38:11.486Z,4.80
2023-03-15T08:40:41.402Z,5.00
2023-03-15T08:43:09.519Z,5.20
2023-03-15T08:45:56.622Z,5.20
2023-03-15T08:48:26.313Z,5.30
2023-03-15T08:50:54.341Z,5.40
2023-03-15T08:53:22.937Z,5.30
2023-03-15T08:55:52.490Z,5.20
2023-03-15T08:58:21.766Z,5.10
2023-03-15T09:00:50.047Z,5.00
2023-03-15T09:03:19.092Z,5.00
2023-03-15T09:05:47.122Z,4.90
2023-03-15T09:08:17.899Z,4.80
2023-03-15T09:10:46.002Z,4.70
2023-03-15T09:13:16.939Z,4.60
2023-03-15T09:15:44.983Z,4.70
2023-03-15T09:18:13.362Z,4.70
2023-03-15T09:20:41.544Z,4.90
2023-03-15T09:23:10.129Z,5.10
2023-03-15T09:25:38.237Z,5.30
2023-03-15T09:28:06.786Z,5.50
2023-03-15T09:30:36.774Z,5.70
2023-03-15T09:33:05.345Z,5.90
2023-03-15T09:35:36.397Z,6.00
2023-03-15T09:38:04.839Z,6.00
2023-03-15T09:40:34.223Z,5.90
2023-03-15T09:43:07.882Z,6.00
2023-03-15T09:45:44.622Z,6.20
2023-03-15T09:48:15.399Z,6.30
2023-03-15T09:50:46.597Z,6.40
2023-03-15T09:53:17.300Z,6.30
2023-03-15T09:55:46.210Z,6.40
2023-03-15T09:58:16.828Z,6.60
2023-03-15T10:00:49.012Z,6.80
2023-03-15T10:03:19.346Z,6.90
2023-03-15T10:05:50.239Z,6.90
2023-03-15T10:08:19.363Z,7.00
2023-03-15T10:10:51.212Z,7.30
2023-03-15T10:13:28.689Z,7.40
2023-03-15T10:16:02.500Z,7.60
2023-03-15T10:18:36.814Z,7.80
2023-03-15T10:21:07.743Z,7.80
2023-03-15T10:23:41.286Z,7.80
2023-03-15T10:26:13.874Z,7.80
2023-03-15T10:28:43.048Z,7.70
2023-03-15T10:31:21.630Z,7.60
2023-03-15T10:33:54.622Z,7.40
2023-03-15T10:36:24.879Z,7.70
2023-03-15T10:38:53.256Z,8.00
2023-03-15T10:41:37.603Z,8.20
2023-03-15T10:44:06.533Z,8.30
2023-03-15T10:46:36.741Z,8.10
2023-03-15T10:49:12.929Z,8.00
2023-03-15T10:51:43.338Z,7.90
2023-03-15T10:54:17.599Z,7.80
2023-03-15T10:56:47.843Z,7.60
2023-03-15T10:59:17.654Z,7.50
2023-03-15T11:01:49.276Z,7.30
2023-03-15T11:04:19.678Z,7.20
2023-03-15T11:06:48.954Z,7.20
2023-03-15T11:09:18.525Z,7.10
2023-03-15T11:11:50.601Z,7.10
2023-03-15T11:14:19.163Z,7.10
2023-03-15T11:16:50.028Z,7.20
2023-03-15T11:19:22.608Z,7.40
2023-03-15T11:21:52.057Z,7.70
2023-03-15T11:24:23.752Z,7.90
2023-03-15T11:26:55.040Z,8.20
2023-03-15T11:29:25.465Z,8.50
2023-03-15T11:31:56.014Z,8.80
2023-03-15T11:34:48.058Z,9.00
2023-03-15T11:37:23.206Z,9.00
2023-03-15T11:40:05.074Z,9.10
2023-03-15T11:42:47.698Z,9.20
2023-03-15T11:45:23.353Z,9.30
2023-03-15T11:47:55.626Z,9.30
2023-03-15T11:50:24.065Z,9.30
2023-03-15T11:52:53.119Z,9.40
2023-03-15T11:55:24.255Z,9.40
2023-03-15T11:57:55.056Z,9.40
2023-03-15T12:00:45.175Z,9.50
2023-03-15T12:03:30.399Z,9.50
2023-03-15T12:06:04.205Z,9.80
2023-03-15T12:08:43.219Z,9.90
2023-03-15T12:11:12.012Z,9.80
2023-03-15T12:13:51.792Z,9.60
2023-03-15T12:16:21.757Z,9.20
2023-03-15T12:18:52.244Z,9.00
2023-03-15T12:21:24.333Z,8.90
2023-03-15T12:24:01.873Z,8.80
2023-03-15T12:26:37.350Z,8.50
2023-03-15T12:29:13.488Z,8.40
2023-03-15T12:31:54.632Z,8.20
2023-03-15T12:34:31.924Z,8.10
2023-03-15T12:37:02.120Z,8.00
2023-03-15T12:39:39.317Z,7.90
2023-03-15T12:42:07.641Z,7.90
2023-03-15T12:44:40.179Z,7.90
2023-03-15T12:47:08.713Z,8.10
2023-03-15T12:49:40.452Z,8.40
2023-03-15T12:52:14.809Z,8.50
2023-03-15T12:54:45.238Z,8.50
2023-03-15T12:57:14.087Z,8.50
2023-03-15T12:59:46.133Z,8.50
2023-03-15T13:02:45.365Z,8.50
2023-03-15T13:05:20.546Z,8.40
2023-03-15T13:07:54.578Z,8.30
2023-03-15T13:10:41.140Z,8.20
2023-03-15T13:13:13.840Z,8.10
2023-03-15T13:15:45.757Z,8.00
2023-03-15T13:18:17.899Z,7.90
2023-03-15T13:20:53.459Z,7.80
2023-03-15T13:23:23.603Z,7.80
2023-03-15T13:25:59.516Z,8.20
2023-03-15T13:28:37.079Z,9.20
2023-03-15T13:31:12.430Z,9.80
2023-03-15T13:33:41.035Z,10.00
2023-03-15T13:36:15.255Z,9.70
2023-03-15T13:38:44.525Z,9.30
2023-03-15T13:41:18.759Z,9.00
2023-03-15T13:43:47.157Z,8.70
2023-03-15T13:46:15.935Z,8.50
2023-03-15T13:48:45.197Z,8.30
2023-03-15T13:51:18.511Z,8.20
2023-03-15T13:53:50.128Z,8.00
2023-03-15T13:56:19.917Z,7.90
2023-03-15T13:58:48.401Z,7.80
2023-03-15T14:01:17.486Z,7.80
2023-03-15T14:03:48.901Z,7.80
2023-03-15T14:06:23.681Z,7.80
2023-03-15T14:08:55.011Z,7.70
2023-03-15T14:11:34.925Z,7.60
2023-03-15T14:14:16.888Z,7.40
2023-03-15T14:17:03.246Z,7.40
2023-03-15T14:19:34.192Z,7.40
2023-03-15T14:22:04.776Z,7.40
2023-03-15T14:24:36.562Z,7.50
2023-03-15T14:27:07.094Z,7.40
2023-03-15T14:29:37.146Z,7.40
2023-03-15T14:32:07.257Z,7.70
2023-03-15T14:34:36.958Z,7.70
2023-03-15T14:37:09.851Z,7.70
2023-03-15T14:39:39.954Z,7.70
2023-03-15T14:42:08.446Z,7.60
2023-03-15T14:44:37.039Z,7.60
2023-03-15T14:47:07.890Z,7.50
2023-03-15T14:49:37.080Z,7.40
2023-03-15T14:52:07.408Z,7.40
2023-03-15T14:54:36.108Z,7.30
2023-03-15T14:57:05.579Z,7.30
2023-03-15T14:59:34.237Z,7.30
2023-03-15T15:02:03.008Z,7.30
2023-03-15T15:04:34.435Z,7.30
2023-03-15T15:07:03.092Z,7.30
2023-03-15T15:09:33.059Z,7.30
2023-03-15T15:12:02.082Z,7.30
2023-03-15T15:14:30.792Z,7.30
2023-03-15T15:16:59.688Z,7.30
2023-03-15T15:19:28.369Z,6.60
2023-03-15T15:21:56.819Z,7.20
2023-03-15T15:24:26.910Z,7.20
2023-03-15T15:26:56.973Z,7.20
2023-03-15T15:29:25.306Z,7.20
2023-03-15T15:31:53.882Z,7.20
2023-03-15T15:34:25.333Z,7.30
2023-03-15T15:36:58.382Z,7.30
2023-03-15T15:39:29.626Z,7.30
2023-03-15T15:41:59.083Z,7.30
2023-03-15T15:44:27.877Z,7.30
2023-03-15T15:46:58.392Z,7.40
2023-03-15T15:49:31.823Z,7.40
2023-03-15T15:52:00.219Z,7.30
2023-03-15T15:54:30.566Z,7.30
2023-03-15T15:57:00.302Z,7.30
2023-03-15T15:59:28.497Z,7.20
2023-03-15T16:02:01.790Z,7.20
2023-03-15T16:04:30.685Z,7.20
2023-03-15T16:07:01.372Z,7.20
2023-03-15T16:09:31.062Z,7.20
2023-03-15T16:12:00.547Z,7.20
2023-03-15T16:14:28.684Z,7.20
2023-03-15T16:16:56.830Z,7.20
2023-03-15T16:19:24.972Z,7.20
2023-03-15T16:21:54.380Z,7.10
2023-03-15T16:24:24.327Z,7.20
2023-03-15T16:26:56.622Z,7.20
2023-03-15T16:29:31.014Z,7.10
2023-03-15T16:32:10.172Z,7.10
2023-03-15T16:34:45.412Z,7.10
2023-03-15T16:37:14.765Z,7.10
2023-03-15T16:39:44.283Z,7.00
2023-03-15T16:42:13.327Z,7.00
2023-03-15T16:44:43.194Z,7.00
2023-03-15T16:47:11.413Z,6.90
2023-03-15T16:49:39.573Z,6.80
2023-03-15T16:52:09.287Z,6.70
2023-03-15T16:54:41.300Z,6.70
2023-03-15T16:57:13.543Z,6.70
2023-03-15T16:59:43.002Z,6.70
2023-03-15T17:02:19.075Z,6.80
2023-03-15T17:04:47.761Z,6.90
2023-03-15T17:07:16.029Z,6.90
2023-03-15T17:09:45.442Z,7.00
2023-03-15T17:12:17.603Z,7.00
2023-03-15T17:14:47.189Z,7.00
2023-03-15T17:17:26.238Z,7.00
2023-03-15T17:19:59.248Z,7.00
2023-03-15T17:22:27.579Z,7.00
2023-03-15T17:24:55.717Z,7.00
2023-03-15T17:27:25.913Z,7.00
2023-03-15T17:29:55.578Z,7.00
2023-03-15T17:32:23.842Z,7.10
2023-03-15T17:34:52.696Z,7.10
2023-03-15T17:37:21.147Z,7.10
2023-03-15T17:39:49.625Z,7.10
2023-03-15T17:42:18.473Z,7.10
2023-03-15T17:44:46.839Z,7.10
2023-03-15T17:47:16.430Z,7.20
2023-03-15T17:49:44.672Z,7.10
2023-03-15T17:52:14.177Z,7.00
2023-03-15T17:54:42.180Z,7.00
2023-03-15T17:57:11.466Z,6.90
2023-03-15T17:59:39.804Z,6.90
2023-03-15T18:02:10.256Z,6.90
2023-03-15T18:04:39.630Z,7.00
2023-03-15T18:07:07.775Z,7.00
2023-03-15T18:09:36.013Z,7.10
2023-03-15T18:12:04.488Z,7.00
2023-03-15T18:14:37.125Z,7.00
2023-03-15T18:17:05.569Z,7.00
2023-03-15T18:19:33.679Z,6.90
2023-03-15T18:22:03.096Z,7.00
2023-03-15T18:24:31.754Z,6.90
2023-03-15T18:26:59.885Z,6.90
2023-03-15T18:29:27.926Z,6.80
2023-03-15T18:31:56.113Z,6.80
2023-03-15T18:34:24.209Z,6.70
2023-03-15T18:36:52.426Z,6.80
2023-03-15T18:39:25.182Z,6.80
2023-03-15T18:41:53.295Z,6.70
2023-03-15T18:44:21.959Z,6.70
2023-03-15T18:46:50.521Z,6.60
2023-03-15T18:49:18.601Z,6.60
2023-03-15T18:51:46.622Z,6.60
2023-03-15T18:54:14.717Z,6.60
2023-03-15T18:56:44.644Z,6.50
2023-03-15T18:59:12.741Z,6.50
2023-03-15T19:01:42.215Z,6.40
2023-03-15T19:04:10.415Z,6.30
2023-03-15T19:06:38.654Z,6.00
2023-03-15T19:09:06.777Z,6.20
2023-03-15T19:11:38.394Z,6.10
2023-03-15T19:14:07.908Z,6.10
2023-03-15T19:16:36.013Z,6.00
2023-03-15T19:19:04.630Z,5.90
2023-03-15T19:21:32.744Z,5.90
2023-03-15T19:24:01.360Z,5.90
2023-03-15T19:26:30.106Z,5.80
2023-03-15T19:29:02.914Z,5.80
2023-03-15T19:31:33.005Z,5.80
2023-03-15T19:34:02.116Z,5.80
2023-03-15T19:36:31.472Z,5.80
2023-03-15T19:39:00.188Z,5.80
2023-03-15T19:41:28.246Z,5.80
2023-03-15T19:43:56.659Z,5.80
2023-03-15T19:46:24.961Z,5.70
2023-03-15T19:48:54.604Z,5.60
2023-03-15T19:51:23.019Z,5.40
2023-03-15T19:53:51.182Z,5.40
2023-03-15T19:56:19.527Z,5.40
2023-03-15T19:58:47.540Z,5.30
2023-03-15T20:01:16.288Z,5.30
2023-03-15T20:03:44.367Z,5.30
2023-03-15T20:06:14.250Z,5.30
2023-03-15T20:08:42.678Z,5.10
2023-03-15T20:11:15.132Z,5.10
2023-03-15T20:13:43.939Z,5.00
2023-03-15T20:16:12.473Z,5.00
2023-03-15T20:18:40.881Z,5.00
2023-03-15T20:21:09.547Z,4.90
2023-03-15T20:23:39.282Z,4.80
2023-03-15T20:26:11.103Z,4.80
2023-03-15T20:28:39.942Z,4.80
2023-03-15T20:31:08.813Z,4.80
2023-03-15T20:33:37.214Z,4.70
2023-03-15T20:36:06.232Z,4.80
2023-03-15T20:38:37.128Z,4.70
2023-03-15T20:41:07.446Z,4.70
2023-03-15T20:43:35.733Z,4.90
2023-03-15T20:46:05.725Z,4.80
2023-03-15T20:48:35.851Z,4.80
2023-03-15T20:51:05.137Z,4.70
2023-03-15T20:53:33.969Z,4.70
2023-03-15T20:56:02.413Z,4.70
2023-03-15T20:58:32.230Z,4.70
2023-03-15T21:01:04.928Z,4.70
2023-03-15T21:03:34.351Z,4.70
2023-03-15T21:06:03.164Z,4.70
2023-03-15T21:08:32.159Z,4.60
2023-03-15T21:11:00.278Z,4.70
2023-03-15T21:13:28.839Z,4.70
2023-03-15T21:16:00.326Z,4.90
2023-03-15T21:18:29.169Z,4.90
2023-03-15T21:20:58.298Z,4.90
2023-03-15T21:23:27.892Z,4.90
2023-03-15T21:25:56.473Z,4.90
2023-03-15T21:28:24.557Z,5.00
2023-03-15T21:30:53.202Z,5.00
2023-03-15T21:33:23.221Z,5.10
2023-03-15T21:35:52.097Z,5.10
2023-03-15T21:38:21.417Z,5.20
2023-03-15T21:40:52.497Z,5.20
2023-03-15T21:43:21.049Z,5.30
2023-03-15T21:45:49.556Z,5.30
2023-03-15T21:48:18.944Z,5.30
2023-03-15T21:50:49.874Z,5.30
2023-03-15T21:53:18.358Z,5.40
2023-03-15T21:55:46.783Z,5.30
2023-03-15T21:58:16.505Z,5.30
2023-03-15T22:00:46.158Z,5.20
2023-03-15T22:03:16.735Z,5.10
2023-03-15T22:05:46.513Z,5.10
2023-03-15T22:08:16.046Z,5.00
2023-03-15T22:10:44.435Z,5.00
2023-03-15T22:13:21.389Z,5.00
2023-03-15T22:15:49.691Z,5.00
2023-03-15T22:18:17.751Z,5.00
2023-03-15T22:20:56.864Z,5.10
2023-03-15T22:23:27.558Z,5.10
2023-03-15T22:25:57.891Z,5.10
2023-03-15T22:28:27.094Z,5.10
2023-03-15T22:31:03.786Z,5.10
2023-03-15T22:33:33.456Z,5.10
2023-03-15T22:36:03.857Z,5.20
2023-03-15T22:38:50.557Z,5.20
2023-03-15T22:41:20.322Z,5.20
2023-03-15T22:43:48.454Z,5.30
2023-03-15T22:46:16.947Z,5.40
2023-03-15T22:48:46.143Z,5.40
2023-03-15T22:51:16.726Z,5.40
2023-03-15T22:53:46.645Z,5.20
2023-03-15T22:56:15.800Z,5.10
2023-03-15T22:58:44.354Z,5.00
2023-03-15T23:01:12.927Z,5.10
2023-03-15T23:03:41.012Z,5.10
2023-03-15T23:06:09.528Z,5.00
2023-03-15T23:08:37.643Z,4.80
2023-03-15T23:11:07.550Z,4.60
2023-03-15T23:13:35.996Z,4.60
2023-03-15T23:16:05.185Z,4.50
2023-03-15T23:18:34.383Z,4.30
2023-03-15T23:21:06.830Z,4.10
2023-03-15T23:23:43.771Z,3.90
2023-03-15T23:26:16.829Z,3.80
2023-03-15T23:28:45.160Z,3.80
2023-03-15T23:31:13.741Z,3.90
2023-03-15T23:33:43.424Z,3.90
2023-03-15T23:36:11.880Z,4.00
2023-03-15T23:38:41.466Z,4.10
2023-03-15T23:41:14.102Z,4.00
2023-03-15T23:43:42.668Z,4.10
2023-03-15T23:46:14.425Z,4.10
2023-03-15T23:48:44.299Z,4.20
2023-03-15T23:51:13.054Z,4.30
2023-03-15T23:53:42.112Z,4.30
2023-03-15T23:56:11.025Z,4.40
2023-03-15T23:58:41.112Z,4.40
